sensor_id;sensor_type;location;lat;lon;timestamp;pressure;altitude;pressure_sealevel;temperature;humidity
71107;BME280;58763;47.982;11.516;2023-12-04T00:01:25;94217.75;;;-4.96;67.62
71107;BME280;58763;47.982;11.516;2023-12-04T00:03:52;94219.50;;;-5.03;68.54
71107;BME280;58763;47.982;11.516;2023-12-04T00:06:18;94217.63;;;-5.09;68.86
71107;BME280;58763;47.982;11.516;2023-12-04T00:08:44;94223.59;;;-5.00;69.35
71107;BME280;58763;47.982;11.516;2023-12-04T00:11:10;94213.50;;;-4.90;69.92
71107;BME280;58763;47.982;11.516;2023-12-04T00:13:35;94206.31;;;-5.03;70.58
71107;BME280;58763;47.982;11.516;2023-12-04T00:16:01;94208.19;;;-4.97;70.93
71107;BME280;58763;47.982;11.516;2023-12-04T00:18:27;94197.47;;;-4.95;70.00
71107;BME280;58763;47.982;11.516;2023-12-04T00:20:52;94194.06;;;-4.89;69.84
71107;BME280;58763;47.982;11.516;2023-12-04T00:23:18;94201.91;;;-4.96;70.43
71107;BME280;58763;47.982;11.516;2023-12-04T00:25:43;94196.16;;;-5.06;71.67
71107;BME280;58763;47.982;11.516;2023-12-04T00:28:10;94194.09;;;-5.10;72.03
71107;BME280;58763;47.982;11.516;2023-12-04T00:30:35;94187.88;;;-5.03;72.35
71107;BME280;58763;47.982;11.516;2023-12-04T00:33:01;94183.13;;;-5.14;72.72
71107;BME280;58763;47.982;11.516;2023-12-04T00:35:27;94180.03;;;-5.17;72.99
71107;BME280;58763;47.982;11.516;2023-12-04T00:37:52;94183.13;;;-5.14;73.26
71107;BME280;58763;47.982;11.516;2023-12-04T00:40:18;94187.41;;;-5.06;72.82
71107;BME280;58763;47.982;11.516;2023-12-04T00:42:43;94190.56;;;-4.96;72.40
71107;BME280;58763;47.982;11.516;2023-12-04T00:45:09;94189.41;;;-4.87;71.43
71107;BME280;58763;47.982;11.516;2023-12-04T00:47:35;94192.66;;;-4.85;70.60
71107;BME280;58763;47.982;11.516;2023-12-04T00:50:00;94187.38;;;-4.85;69.96
71107;BME280;58763;47.982;11.516;2023-12-04T00:52:26;94184.16;;;-4.80;68.85
71107;BME280;58763;47.982;11.516;2023-12-04T00:54:52;94183.41;;;-4.74;68.02
71107;BME280;58763;47.982;11.516;2023-12-04T00:57:17;94181.97;;;-4.77;68.62
71107;BME280;58763;47.982;11.516;2023-12-04T00:59:43;94172.03;;;-4.75;68.51
71107;BME280;58763;47.982;11.516;2023-12-04T01:02:09;94178.75;;;-4.72;68.69
71107;BME280;58763;47.982;11.516;2023-12-04T01:04:46;94178.47;;;-4.84;69.48
71107;BME280;58763;47.982;11.516;2023-12-04T01:07:11;94177.63;;;-4.91;69.38
71107;BME280;58763;47.982;11.516;2023-12-04T01:09:37;94172.28;;;-4.98;69.13
71107;BME280;58763;47.982;11.516;2023-12-04T01:12:03;94172.63;;;-5.07;69.49
71107;BME280;58763;47.982;11.516;2023-12-04T01:14:29;94170.16;;;-5.09;69.53
71107;BME280;58763;47.982;11.516;2023-12-04T01:16:55;94170.16;;;-5.09;69.52
71107;BME280;58763;47.982;11.516;2023-12-04T01:19:21;94164.66;;;-5.14;69.80
71107;BME280;58763;47.982;11.516;2023-12-04T01:21:47;94172.78;;;-5.09;69.43
71107;BME280;58763;47.982;11.516;2023-12-04T01:24:14;94167.78;;;-5.04;67.86
71107;BME280;58763;47.982;11.516;2023-12-04T01:26:40;94166.81;;;-4.96;65.41
71107;BME280;58763;47.982;11.516;2023-12-04T01:29:06;94167.94;;;-5.12;65.29
71107;BME280;58763;47.982;11.516;2023-12-04T01:31:32;94169.19;;;-5.29;65.86
71107;BME280;58763;47.982;11.516;2023-12-04T01:33:57;94165.28;;;-5.39;66.75
71107;BME280;58763;47.982;11.516;2023-12-04T01:36:23;94160.16;;;-5.41;67.40
71107;BME280;58763;47.982;11.516;2023-12-04T01:38:49;94150.25;;;-5.39;67.77
71107;BME280;58763;47.982;11.516;2023-12-04T01:41:14;94141.72;;;-5.41;68.63
71107;BME280;58763;47.982;11.516;2023-12-04T01:43:40;94138.22;;;-5.48;69.05
71107;BME280;58763;47.982;11.516;2023-12-04T01:46:06;94133.78;;;-5.69;69.26
71107;BME280;58763;47.982;11.516;2023-12-04T01:48:32;94133.22;;;-5.64;69.39
71107;BME280;58763;47.982;11.516;2023-12-04T01:51:00;94128.34;;;-5.67;69.49
71107;BME280;58763;47.982;11.516;2023-12-04T01:53:27;94133.72;;;-5.75;68.75
71107;BME280;58763;47.982;11.516;2023-12-04T01:55:53;94122.94;;;-5.80;68.78
71107;BME280;58763;47.982;11.516;2023-12-04T01:58:19;94121.50;;;-5.83;68.67
71107;BME280;58763;47.982;11.516;2023-12-04T02:00:45;94117.34;;;-5.71;67.95
71107;BME280;58763;47.982;11.516;2023-12-04T02:03:11;94117.81;;;-5.67;66.84
71107;BME280;58763;47.982;11.516;2023-12-04T02:05:37;94115.91;;;-5.73;67.75
71107;BME280;58763;47.982;11.516;2023-12-04T02:08:03;94106.50;;;-5.82;68.51
71107;BME280;58763;47.982;11.516;2023-12-04T02:10:29;94101.78;;;-5.93;69.54
71107;BME280;58763;47.982;11.516;2023-12-04T02:12:55;94099.31;;;-5.95;70.47
71107;BME280;58763;47.982;11.516;2023-12-04T02:15:21;94089.00;;;-5.96;70.69
71107;BME280;58763;47.982;11.516;2023-12-04T02:17:47;94087.75;;;-6.00;71.06
71107;BME280;58763;47.982;11.516;2023-12-04T02:20:14;94082.75;;;-5.95;71.15
71107;BME280;58763;47.982;11.516;2023-12-04T02:22:41;94077.97;;;-5.79;70.63
71107;BME280;58763;47.982;11.516;2023-12-04T02:25:08;94077.97;;;-5.79;70.75
71107;BME280;58763;47.982;11.516;2023-12-04T02:27:45;94064.31;;;-5.68;69.50
71107;BME280;58763;47.982;11.516;2023-12-04T02:30:13;94069.94;;;-5.71;69.35
71107;BME280;58763;47.982;11.516;2023-12-04T02:32:44;94071.97;;;-5.73;68.26
71107;BME280;58763;47.982;11.516;2023-12-04T02:35:13;94074.34;;;-5.78;66.88
71107;BME280;58763;47.982;11.516;2023-12-04T02:37:42;94067.63;;;-5.87;67.27
71107;BME280;58763;47.982;11.516;2023-12-04T02:40:10;94063.03;;;-5.99;67.30
71107;BME280;58763;47.982;11.516;2023-12-04T02:42:36;94055.91;;;-6.05;69.29
71107;BME280;58763;47.982;11.516;2023-12-04T02:45:02;94058.59;;;-5.99;71.32
71107;BME280;58763;47.982;11.516;2023-12-04T02:47:27;94057.09;;;-6.08;72.37
71107;BME280;58763;47.982;11.516;2023-12-04T02:49:53;94056.84;;;-6.13;72.57
71107;BME280;58763;47.982;11.516;2023-12-04T02:52:18;94061.94;;;-6.11;73.25
71107;BME280;58763;47.982;11.516;2023-12-04T02:54:44;94050.44;;;-6.04;72.43
71107;BME280;58763;47.982;11.516;2023-12-04T02:57:10;94049.88;;;-5.99;72.40
71107;BME280;58763;47.982;11.516;2023-12-04T02:59:35;94040.63;;;-5.95;72.63
71107;BME280;58763;47.982;11.516;2023-12-04T03:02:01;94039.47;;;-5.86;73.04
71107;BME280;58763;47.982;11.516;2023-12-04T03:04:28;94033.91;;;-5.98;72.45
71107;BME280;58763;47.982;11.516;2023-12-04T03:06:55;94034.09;;;-5.99;72.79
71107;BME280;58763;47.982;11.516;2023-12-04T03:09:20;94028.06;;;-5.93;72.97
71107;BME280;58763;47.982;11.516;2023-12-04T03:11:46;94017.66;;;-5.74;71.45
71107;BME280;58763;47.982;11.516;2023-12-04T03:14:11;94012.97;;;-5.78;70.56
71107;BME280;58763;47.982;11.516;2023-12-04T03:16:37;94012.56;;;-5.82;70.80
71107;BME280;58763;47.982;11.516;2023-12-04T03:19:02;94013.22;;;-5.73;70.62
71107;BME280;58763;47.982;11.516;2023-12-04T03:21:28;94012.81;;;-5.42;65.99
71107;BME280;58763;47.982;11.516;2023-12-04T03:23:54;94003.13;;;-5.70;66.33
71107;BME280;58763;47.982;11.516;2023-12-04T03:26:19;94011.59;;;-5.74;67.38
71107;BME280;58763;47.982;11.516;2023-12-04T03:28:45;94006.75;;;-5.71;68.57
71107;BME280;58763;47.982;11.516;2023-12-04T03:31:11;94003.41;;;-5.86;69.55
71107;BME280;58763;47.982;11.516;2023-12-04T03:33:37;94007.09;;;-5.80;70.17
71107;BME280;58763;47.982;11.516;2023-12-04T03:36:03;94001.00;;;-5.81;70.06
71107;BME280;58763;47.982;11.516;2023-12-04T03:38:28;94002.69;;;-5.73;69.52
71107;BME280;58763;47.982;11.516;2023-12-04T03:40:54;93996.78;;;-5.75;69.32
71107;BME280;58763;47.982;11.516;2023-12-04T03:43:20;93993.63;;;-5.64;69.24
71107;BME280;58763;47.982;11.516;2023-12-04T03:45:45;93990.13;;;-5.71;68.91
71107;BME280;58763;47.982;11.516;2023-12-04T03:48:11;93978.84;;;-5.65;69.20
71107;BME280;58763;47.982;11.516;2023-12-04T03:50:37;93985.34;;;-5.61;68.96
71107;BME280;58763;47.982;11.516;2023-12-04T03:53:02;93980.94;;;-5.54;68.92
71107;BME280;58763;47.982;11.516;2023-12-04T03:55:28;93983.00;;;-5.49;68.64
71107;BME280;58763;47.982;11.516;2023-12-04T03:57:54;93979.66;;;-5.30;68.61
71107;BME280;58763;47.982;11.516;2023-12-04T04:00:20;93972.78;;;-5.25;67.55
71107;BME280;58763;47.982;11.516;2023-12-04T04:02:46;93975.97;;;-5.36;67.85
71107;BME280;58763;47.982;11.516;2023-12-04T04:05:12;93969.69;;;-5.41;68.18
71107;BME280;58763;47.982;11.516;2023-12-04T04:07:37;93976.19;;;-5.37;68.58
71107;BME280;58763;47.982;11.516;2023-12-04T04:10:03;93976.19;;;-5.37;66.30
71107;BME280;58763;47.982;11.516;2023-12-04T04:12:30;93966.22;;;-5.42;67.14
71107;BME280;58763;47.982;11.516;2023-12-04T04:14:56;93970.41;;;-5.54;68.21
71107;BME280;58763;47.982;11.516;2023-12-04T04:17:22;93975.47;;;-5.52;69.36
71107;BME280;58763;47.982;11.516;2023-12-04T04:19:47;93966.38;;;-5.50;69.12
71107;BME280;58763;47.982;11.516;2023-12-04T04:22:13;93964.66;;;-5.64;70.03
71107;BME280;58763;47.982;11.516;2023-12-04T04:24:38;93957.38;;;-5.62;70.14
71107;BME280;58763;47.982;11.516;2023-12-04T04:27:04;93966.91;;;-5.61;69.92
71107;BME280;58763;47.982;11.516;2023-12-04T04:29:30;93954.56;;;-5.61;70.04
71107;BME280;58763;47.982;11.516;2023-12-04T04:31:55;93953.53;;;-5.60;69.10
71107;BME280;58763;47.982;11.516;2023-12-04T04:34:21;93946.50;;;-5.52;67.80
71107;BME280;58763;47.982;11.516;2023-12-04T04:36:47;93956.78;;;-5.57;67.24
71107;BME280;58763;47.982;11.516;2023-12-04T04:39:13;93959.63;;;-5.59;66.97
71107;BME280;58763;47.982;11.516;2023-12-04T04:41:40;93954.94;;;-5.64;67.37
71107;BME280;58763;47.982;11.516;2023-12-04T04:44:06;93955.78;;;-5.56;67.42
71107;BME280;58763;47.982;11.516;2023-12-04T04:46:32;93956.03;;;-5.51;67.71
71107;BME280;58763;47.982;11.516;2023-12-04T04:48:57;93956.75;;;-5.64;68.35
71107;BME280;58763;47.982;11.516;2023-12-04T04:51:23;93951.56;;;-5.85;69.32
71107;BME280;58763;47.982;11.516;2023-12-04T04:53:49;93946.28;;;-5.92;69.74
71107;BME280;58763;47.982;11.516;2023-12-04T04:56:15;93934.06;;;-5.99;70.20
71107;BME280;58763;47.982;11.516;2023-12-04T04:58:41;93927.22;;;-5.94;70.04
71107;BME280;58763;47.982;11.516;2023-12-04T05:01:08;93924.94;;;-6.03;69.94
71107;BME280;58763;47.982;11.516;2023-12-04T05:03:34;93920.03;;;-6.06;69.84
71107;BME280;58763;47.982;11.516;2023-12-04T05:06:00;93919.56;;;-5.89;69.39
71107;BME280;58763;47.982;11.516;2023-12-04T05:08:26;93913.97;;;-5.73;67.91
71107;BME280;58763;47.982;11.516;2023-12-04T05:10:51;93912.28;;;-5.80;66.71
71107;BME280;58763;47.982;11.516;2023-12-04T05:13:17;93915.31;;;-5.90;65.45
71107;BME280;58763;47.982;11.516;2023-12-04T05:15:43;93916.25;;;-5.97;65.42
71107;BME280;58763;47.982;11.516;2023-12-04T05:18:08;93924.63;;;-6.15;65.73
71107;BME280;58763;47.982;11.516;2023-12-04T05:20:34;93923.44;;;-6.12;67.81
71107;BME280;58763;47.982;11.516;2023-12-04T05:23:00;93924.72;;;-6.02;67.91
71107;BME280;58763;47.982;11.516;2023-12-04T05:25:26;93918.97;;;-6.18;68.80
71107;BME280;58763;47.982;11.516;2023-12-04T05:27:51;93912.06;;;-6.19;70.84
71107;BME280;58763;47.982;11.516;2023-12-04T05:30:17;93910.19;;;-6.25;72.45
71107;BME280;58763;47.982;11.516;2023-12-04T05:32:43;93913.44;;;-6.23;72.83
71107;BME280;58763;47.982;11.516;2023-12-04T05:35:09;93914.81;;;-6.27;72.95
71107;BME280;58763;47.982;11.516;2023-12-04T05:37:34;93915.75;;;-6.14;72.05
71107;BME280;58763;47.982;11.516;2023-12-04T05:40:00;93911.00;;;-5.97;68.55
71107;BME280;58763;47.982;11.516;2023-12-04T05:42:26;93909.19;;;-5.97;66.39
71107;BME280;58763;47.982;11.516;2023-12-04T05:44:51;93915.88;;;-6.22;65.39
71107;BME280;58763;47.982;11.516;2023-12-04T05:47:21;93896.59;;;-6.29;66.16
71107;BME280;58763;47.982;11.516;2023-12-04T05:49:46;93893.47;;;-6.39;66.02
71107;BME280;58763;47.982;11.516;2023-12-04T05:52:12;93896.75;;;-6.37;66.08
71107;BME280;58763;47.982;11.516;2023-12-04T05:54:38;93893.19;;;-6.51;65.75
71107;BME280;58763;47.982;11.516;2023-12-04T05:57:03;93902.03;;;-6.58;66.64
71107;BME280;58763;47.982;11.516;2023-12-04T05:59:29;93894.72;;;-6.63;68.42
71107;BME280;58763;47.982;11.516;2023-12-04T06:01:55;93900.84;;;-6.77;67.96
71107;BME280;58763;47.982;11.516;2023-12-04T06:04:20;93892.88;;;-6.83;68.11
71107;BME280;58763;47.982;11.516;2023-12-04T06:06:46;93895.44;;;-6.90;68.98
71107;BME280;58763;47.982;11.516;2023-12-04T06:09:11;93886.28;;;-6.79;69.54
71107;BME280;58763;47.982;11.516;2023-12-04T06:11:37;93882.19;;;-6.61;69.80
71107;BME280;58763;47.982;11.516;2023-12-04T06:14:03;93883.28;;;-6.49;69.10
71107;BME280;58763;47.982;11.516;2023-12-04T06:16:28;93879.34;;;-6.59;69.31
71107;BME280;58763;47.982;11.516;2023-12-04T06:18:54;93876.41;;;-6.50;69.59
71107;BME280;58763;47.982;11.516;2023-12-04T06:21:20;93876.41;;;-6.50;70.04
71107;BME280;58763;47.982;11.516;2023-12-04T06:23:46;93879.09;;;-6.43;69.43
71107;BME280;58763;47.982;11.516;2023-12-04T06:26:12;93869.88;;;-6.32;67.69
71107;BME280;58763;47.982;11.516;2023-12-04T06:28:38;93870.06;;;-6.34;67.01
71107;BME280;58763;47.982;11.516;2023-12-04T06:31:04;93858.50;;;-6.40;68.32
71107;BME280;58763;47.982;11.516;2023-12-04T06:33:30;93863.41;;;-6.30;69.75
71107;BME280;58763;47.982;11.516;2023-12-04T06:35:56;93857.00;;;-6.21;70.12
71107;BME280;58763;47.982;11.516;2023-12-04T06:38:24;93861.28;;;-6.13;70.11
71107;BME280;58763;47.982;11.516;2023-12-04T06:40:50;93856.31;;;-6.02;69.87
71107;BME280;58763;47.982;11.516;2023-12-04T06:43:16;93855.09;;;-5.99;69.17
71107;BME280;58763;47.982;11.516;2023-12-04T06:45:47;93851.94;;;-5.88;68.57
71107;BME280;58763;47.982;11.516;2023-12-04T06:48:13;93854.38;;;-5.87;68.06
71107;BME280;58763;47.982;11.516;2023-12-04T06:50:39;93852.13;;;-5.83;66.93
71107;BME280;58763;47.982;11.516;2023-12-04T06:53:06;93848.66;;;-5.90;67.58
71107;BME280;58763;47.982;11.516;2023-12-04T06:55:31;93847.91;;;-5.78;68.03
71107;BME280;58763;47.982;11.516;2023-12-04T06:57:58;93854.59;;;-5.75;68.79
71107;BME280;58763;47.982;11.516;2023-12-04T07:00:24;93852.59;;;-5.73;68.81
71107;BME280;58763;47.982;11.516;2023-12-04T07:02:50;93844.22;;;-5.83;69.24
71107;BME280;58763;47.982;11.516;2023-12-04T07:05:16;93849.34;;;-5.75;68.91
71107;BME280;58763;47.982;11.516;2023-12-04T07:07:42;93843.50;;;-5.64;67.94
71107;BME280;58763;47.982;11.516;2023-12-04T07:10:08;93836.19;;;-5.75;67.89
71107;BME280;58763;47.982;11.516;2023-12-04T07:12:33;93834.34;;;-5.81;68.68
71107;BME280;58763;47.982;11.516;2023-12-04T07:14:59;93832.94;;;-5.77;69.86
71107;BME280;58763;47.982;11.516;2023-12-04T07:17:25;93830.97;;;-5.62;69.31
71107;BME280;58763;47.982;11.516;2023-12-04T07:19:50;93830.81;;;-5.54;68.08
71107;BME280;58763;47.982;11.516;2023-12-04T07:22:16;93829.38;;;-5.56;67.08
71107;BME280;58763;47.982;11.516;2023-12-04T07:24:42;93829.50;;;-5.71;67.18
71107;BME280;58763;47.982;11.516;2023-12-04T07:27:07;93823.00;;;-5.75;67.80
71107;BME280;58763;47.982;11.516;2023-12-04T07:29:34;93812.94;;;-5.65;68.71
71107;BME280;58763;47.982;11.516;2023-12-04T07:32:00;93807.06;;;-5.61;69.53
71107;BME280;58763;47.982;11.516;2023-12-04T07:34:26;93793.13;;;-5.48;69.53
71107;BME280;58763;47.982;11.516;2023-12-04T07:36:52;93794.50;;;-5.65;69.95
71107;BME280;58763;47.982;11.516;2023-12-04T07:39:17;93795.88;;;-5.69;70.28
71107;BME280;58763;47.982;11.516;2023-12-04T07:41:43;93782.56;;;-5.54;70.40
71107;BME280;58763;47.982;11.516;2023-12-04T07:44:08;93779.56;;;-5.51;68.76
71107;BME280;58763;47.982;11.516;2023-12-04T07:46:34;93778.13;;;-5.47;67.25
71107;BME280;58763;47.982;11.516;2023-12-04T07:48:59;93782.78;;;-5.56;66.36
71107;BME280;58763;47.982;11.516;2023-12-04T07:51:25;93780.16;;;-5.56;65.91
71107;BME280;58763;47.982;11.516;2023-12-04T07:53:51;93786.78;;;-5.60;65.68
71107;BME280;58763;47.982;11.516;2023-12-04T07:56:16;93785.19;;;-5.61;65.35
71107;BME280;58763;47.982;11.516;2023-12-04T07:58:42;93798.94;;;-5.66;66.51
71107;BME280;58763;47.982;11.516;2023-12-04T08:01:08;93790.22;;;-5.73;67.79
71107;BME280;58763;47.982;11.516;2023-12-04T08:03:34;93804.59;;;-5.69;68.58
71107;BME280;58763;47.982;11.516;2023-12-04T08:05:59;93808.66;;;-5.66;68.56
71107;BME280;58763;47.982;11.516;2023-12-04T08:08:25;93806.50;;;-5.49;68.70
71107;BME280;58763;47.982;11.516;2023-12-04T08:10:50;93797.03;;;-5.37;68.25
71107;BME280;58763;47.982;11.516;2023-12-04T08:13:16;93802.28;;;-5.44;68.35
71107;BME280;58763;47.982;11.516;2023-12-04T08:15:43;93802.28;;;-5.37;67.89
71107;BME280;58763;47.982;11.516;2023-12-04T08:18:09;93800.88;;;-5.33;67.82
71107;BME280;58763;47.982;11.516;2023-12-04T08:20:34;93792.16;;;-5.27;67.90
71107;BME280;58763;47.982;11.516;2023-12-04T08:23:01;93793.56;;;-5.38;68.38
71107;BME280;58763;47.982;11.516;2023-12-04T08:25:28;93784.66;;;-5.37;68.94
71107;BME280;58763;47.982;11.516;2023-12-04T08:27:53;93785.69;;;-5.31;69.69
71107;BME280;58763;47.982;11.516;2023-12-04T08:30:19;93785.06;;;-5.27;70.29
71107;BME280;58763;47.982;11.516;2023-12-04T08:32:45;93770.69;;;-5.18;71.00
71107;BME280;58763;47.982;11.516;2023-12-04T08:35:11;93784.13;;;-5.00;71.11
71107;BME280;58763;47.982;11.516;2023-12-04T08:37:37;93787.59;;;-4.86;70.84
71107;BME280;58763;47.982;11.516;2023-12-04T08:40:03;93786.75;;;-4.80;70.87
71107;BME280;58763;47.982;11.516;2023-12-04T08:42:29;93786.16;;;-4.69;69.62
71107;BME280;58763;47.982;11.516;2023-12-04T08:44:55;93788.00;;;-4.63;70.00
71107;BME280;58763;47.982;11.516;2023-12-04T08:47:21;93779.47;;;-4.52;69.13
71107;BME280;58763;47.982;11.516;2023-12-04T08:49:47;93783.31;;;-4.41;69.33
71107;BME280;58763;47.982;11.516;2023-12-04T08:52:13;93777.25;;;-4.48;69.58
71107;BME280;58763;47.982;11.516;2023-12-04T08:54:41;93774.78;;;-4.50;69.81
71107;BME280;58763;47.982;11.516;2023-12-04T08:57:08;93774.78;;;-4.56;70.45
71107;BME280;58763;47.982;11.516;2023-12-04T08:59:34;93786.13;;;-4.23;70.32
71107;BME280;58763;47.982;11.516;2023-12-04T09:02:00;93774.72;;;-4.10;70.61
71107;BME280;58763;47.982;11.516;2023-12-04T09:04:30;93776.75;;;-4.06;70.56
71107;BME280;58763;47.982;11.516;2023-12-04T09:06:58;93771.84;;;-3.96;71.28
71107;BME280;58763;47.982;11.516;2023-12-04T09:09:24;93778.72;;;-3.82;71.78
71107;BME280;58763;47.982;11.516;2023-12-04T09:11:50;93769.38;;;-3.84;71.57
71107;BME280;58763;47.982;11.516;2023-12-04T09:14:15;93766.44;;;-3.63;71.55
71107;BME280;58763;47.982;11.516;2023-12-04T09:16:43;93769.66;;;-3.55;71.59
71107;BME280;58763;47.982;11.516;2023-12-04T09:19:10;93773.09;;;-3.47;70.43
71107;BME280;58763;47.982;11.516;2023-12-04T09:21:36;93772.72;;;-3.51;70.36
71107;BME280;58763;47.982;11.516;2023-12-04T09:24:01;93774.72;;;-3.46;70.88
71107;BME280;58763;47.982;11.516;2023-12-04T09:26:27;93775.72;;;-3.47;71.98
71107;BME280;58763;47.982;11.516;2023-12-04T09:28:52;93779.91;;;-3.27;72.11
71107;BME280;58763;47.982;11.516;2023-12-04T09:31:18;93783.50;;;-3.15;72.21
71107;BME280;58763;47.982;11.516;2023-12-04T09:33:45;93775.97;;;-3.11;71.76
71107;BME280;58763;47.982;11.516;2023-12-04T09:36:11;93772.69;;;-3.07;71.80
71107;BME280;58763;47.982;11.516;2023-12-04T09:38:36;93781.25;;;-3.11;71.61
71107;BME280;58763;47.982;11.516;2023-12-04T09:41:06;93784.53;;;-3.16;71.89
71107;BME280;58763;47.982;11.516;2023-12-04T09:43:32;93775.69;;;-3.03;72.72
71107;BME280;58763;47.982;11.516;2023-12-04T09:45:58;93774.44;;;-2.94;72.04
71107;BME280;58763;47.982;11.516;2023-12-04T09:48:25;93775.81;;;-2.85;71.81
71107;BME280;58763;47.982;11.516;2023-12-04T09:50:52;93772.56;;;-2.87;71.91
71107;BME280;58763;47.982;11.516;2023-12-04T09:53:18;93761.97;;;-2.87;71.78
71107;BME280;58763;47.982;11.516;2023-12-04T09:55:48;93760.94;;;-2.86;71.65
71107;BME280;58763;47.982;11.516;2023-12-04T09:58:14;93760.03;;;-2.73;72.32
71107;BME280;58763;47.982;11.516;2023-12-04T10:00:42;93763.22;;;-2.65;71.90
71107;BME280;58763;47.982;11.516;2023-12-04T10:03:08;93749.56;;;-2.62;71.22
71107;BME280;58763;47.982;11.516;2023-12-04T10:05:34;93748.75;;;-2.62;71.09
71107;BME280;58763;47.982;11.516;2023-12-04T10:08:03;93759.56;;;-2.64;71.76
71107;BME280;58763;47.982;11.516;2023-12-04T10:10:30;93754.59;;;-2.54;69.96
71107;BME280;58763;47.982;11.516;2023-12-04T10:12:55;93744.13;;;-2.67;69.26
71107;BME280;58763;47.982;11.516;2023-12-04T10:15:21;93748.75;;;-2.62;70.04
71107;BME280;58763;47.982;11.516;2023-12-04T10:17:46;93728.94;;;-2.53;70.44
71107;BME280;58763;47.982;11.516;2023-12-04T10:20:14;93733.47;;;-2.36;70.29
71107;BME280;58763;47.982;11.516;2023-12-04T10:22:58;93726.47;;;-2.30;70.13
71107;BME280;58763;47.982;11.516;2023-12-04T10:25:25;93716.41;;;-2.22;70.28
71107;BME280;58763;47.982;11.516;2023-12-04T10:27:52;93718.63;;;-2.19;70.75
71107;BME280;58763;47.982;11.516;2023-12-04T10:30:25;93718.63;;;-2.19;71.02
71107;BME280;58763;47.982;11.516;2023-12-04T10:33:06;93711.56;;;-2.06;70.83
71107;BME280;58763;47.982;11.516;2023-12-04T10:35:33;93706.69;;;-2.10;70.22
71107;BME280;58763;47.982;11.516;2023-12-04T10:38:02;93708.09;;;-2.07;70.86
71107;BME280;58763;47.982;11.516;2023-12-04T10:40:29;93715.38;;;-2.21;72.09
71107;BME280;58763;47.982;11.516;2023-12-04T10:43:21;93714.63;;;-2.46;73.99
71107;BME280;58763;47.982;11.516;2023-12-04T10:45:48;93713.72;;;-2.40;74.03
71107;BME280;58763;47.982;11.516;2023-12-04T10:48:16;93698.56;;;-2.51;74.99
71107;BME280;58763;47.982;11.516;2023-12-04T10:50:46;93696.75;;;-2.50;75.47
71107;BME280;58763;47.982;11.516;2023-12-04T10:53:14;93690.03;;;-2.53;75.83
71107;BME280;58763;47.982;11.516;2023-12-04T10:55:40;93694.19;;;-2.39;76.08
71107;BME280;58763;47.982;11.516;2023-12-04T10:58:11;93692.53;;;-2.58;76.63
71107;BME280;58763;47.982;11.516;2023-12-04T11:00:45;93691.78;;;-2.65;77.55
71107;BME280;58763;47.982;11.516;2023-12-04T11:03:36;93688.59;;;-2.73;78.36
71107;BME280;58763;47.982;11.516;2023-12-04T11:06:06;93679.53;;;-2.59;78.10
71107;BME280;58763;47.982;11.516;2023-12-04T11:08:35;93679.56;;;-2.66;78.57
71107;BME280;58763;47.982;11.516;2023-12-04T11:11:03;93676.72;;;-2.64;79.53
71107;BME280;58763;47.982;11.516;2023-12-04T11:13:31;93673.19;;;-2.58;79.34
71107;BME280;58763;47.982;11.516;2023-12-04T11:16:02;93660.44;;;-2.68;79.86
71107;BME280;58763;47.982;11.516;2023-12-04T11:18:35;93653.72;;;-2.64;79.81
71107;BME280;58763;47.982;11.516;2023-12-04T11:21:07;93656.50;;;-2.59;79.36
71107;BME280;58763;47.982;11.516;2023-12-04T11:23:34;93654.66;;;-2.58;79.62
71107;BME280;58763;47.982;11.516;2023-12-04T11:26:01;93637.25;;;-2.48;79.23
71107;BME280;58763;47.982;11.516;2023-12-04T11:28:30;93636.13;;;-2.40;78.79
71107;BME280;58763;47.982;11.516;2023-12-04T11:30:56;93619.31;;;-2.46;78.76
71107;BME280;58763;47.982;11.516;2023-12-04T11:33:23;93619.91;;;-2.44;79.13
71107;BME280;58763;47.982;11.516;2023-12-04T11:35:50;93609.47;;;-2.39;78.82
71107;BME280;58763;47.982;11.516;2023-12-04T11:38:16;93603.50;;;-2.34;78.91
71107;BME280;58763;47.982;11.516;2023-12-04T11:40:42;93606.81;;;-2.21;79.11
71107;BME280;58763;47.982;11.516;2023-12-04T11:43:27;93604.38;;;-2.22;78.74
71107;BME280;58763;47.982;11.516;2023-12-04T11:46:10;93594.22;;;-2.07;78.09
71107;BME280;58763;47.982;11.516;2023-12-04T11:48:39;93595.25;;;-2.08;78.02
71107;BME280;58763;47.982;11.516;2023-12-04T11:51:06;93605.31;;;-2.17;77.39
71107;BME280;58763;47.982;11.516;2023-12-04T11:53:38;93610.06;;;-2.37;77.76
71107;BME280;58763;47.982;11.516;2023-12-04T11:56:10;93618.16;;;-2.50;77.25
71107;BME280;58763;47.982;11.516;2023-12-04T11:58:47;93615.03;;;-2.47;77.26
71107;BME280;58763;47.982;11.516;2023-12-04T12:01:12;93621.16;;;-2.46;77.70
71107;BME280;58763;47.982;11.516;2023-12-04T12:03:38;93624.03;;;-2.48;77.79
71107;BME280;58763;47.982;11.516;2023-12-04T12:06:05;93628.13;;;-2.52;78.01
71107;BME280;58763;47.982;11.516;2023-12-04T12:08:31;93627.47;;;-2.47;77.89
71107;BME280;58763;47.982;11.516;2023-12-04T12:10:57;93607.84;;;-2.40;77.15
71107;BME280;58763;47.982;11.516;2023-12-04T12:13:23;93613.13;;;-2.40;77.92
71107;BME280;58763;47.982;11.516;2023-12-04T12:15:52;93614.38;;;-2.42;77.09
71107;BME280;58763;47.982;11.516;2023-12-04T12:18:18;93620.22;;;-2.34;76.90
71107;BME280;58763;47.982;11.516;2023-12-04T12:20:43;93622.53;;;-2.62;77.03
71107;BME280;58763;47.982;11.516;2023-12-04T12:23:09;93625.78;;;-2.60;76.92
71107;BME280;58763;47.982;11.516;2023-12-04T12:25:36;93621.66;;;-2.56;77.13
71107;BME280;58763;47.982;11.516;2023-12-04T12:28:05;93623.41;;;-2.68;77.59
71107;BME280;58763;47.982;11.516;2023-12-04T12:30:32;93619.44;;;-2.59;78.13
71107;BME280;58763;47.982;11.516;2023-12-04T12:32:57;93615.19;;;-2.60;77.71
71107;BME280;58763;47.982;11.516;2023-12-04T12:35:23;93609.59;;;-2.70;78.19
71107;BME280;58763;47.982;11.516;2023-12-04T12:37:50;93605.47;;;-2.66;78.64
71107;BME280;58763;47.982;11.516;2023-12-04T12:40:20;93604.59;;;-2.60;78.81
71107;BME280;58763;47.982;11.516;2023-12-04T12:42:46;93606.09;;;-2.46;78.63
71107;BME280;58763;47.982;11.516;2023-12-04T12:45:12;93612.94;;;-2.38;78.72
71107;BME280;58763;47.982;11.516;2023-12-04T12:47:40;93607.81;;;-2.22;79.19